sensor_id;sensor_type;location;lat;lon;timestamp;P1;durP1;ratioP1;P2;durP2;ratioP2
7177;SDS011;3630;42.146;24.756;2022-12-01T00:01:47;6.93;;;6.33;;
7177;SDS011;3630;42.146;24.756;2022-12-01T00:04:13;7.60;;;6.90;;
7177;SDS011;3630;42.146;24.756;2022-12-01T00:06:42;7.37;;;6.10;;
7177;SDS011;3630;42.146;24.756;2022-12-01T00:09:08;7.60;;;6.90;;
7177;SDS011;3630;42.146;24.756;2022-12-01T00:11:52;8.90;;;7.40;;
7177;SDS011;3630;42.146;24.756;2022-12-01T00:14:19;8.50;;;6.77;;
7177;SDS011;3630;42.146;24.756;2022-12-01T00:16:46;8.00;;;7.20;;
7177;SDS011;3630;42.146;24.756;2022-12-01T00:19:13;7.87;;;7.17;;
7177;SDS011;3630;42.146;24.756;2022-12-01T00:21:43;8.17;;;7.37;;
7177;SDS011;3630;42.146;24.756;2022-12-01T00:24:11;8.77;;;7.30;;
7177;SDS011;3630;42.146;24.756;2022-12-01T00:26:38;8.23;;;7.43;;
7177;SDS011;3630;42.146;24.756;2022-12-01T00:29:05;8.60;;;7.70;;
7177;SDS011;3630;42.146;24.756;2022-12-01T00:31:31;8.10;;;7.30;;
7177;SDS011;3630;42.146;24.756;2022-12-01T00:33:58;7.93;;;7.23;;
7177;SDS011;3630;42.146;24.756;2022-12-01T00:36:25;6.90;;;6.20;;
7177;SDS011;3630;42.146;24.756;2022-12-01T00:38:54;7.53;;;6.83;;
7177;SDS011;3630;42.146;24.756;2022-12-01T00:41:22;7.97;;;7.17;;
7177;SDS011;3630;42.146;24.756;2022-12-01T00:43:50;8.60;;;7.73;;
7177;SDS011;3630;42.146;24.756;2022-12-01T00:46:17;8.10;;;7.10;;
7177;SDS011;3630;42.146;24.756;2022-12-01T00:48:44;8.07;;;7.23;;
7177;SDS011;3630;42.146;24.756;2022-12-01T00:51:11;7.27;;;6.57;;
7177;SDS011;3630;42.146;24.756;2022-12-01T00:53:38;7.87;;;7.07;;
7177;SDS011;3630;42.146;24.756;2022-12-01T00:56:06;6.73;;;6.13;;
7177;SDS011;3630;42.146;24.756;2022-12-01T00:58:33;7.13;;;6.43;;
7177;SDS011;3630;42.146;24.756;2022-12-01T01:01:00;7.87;;;7.07;;
7177;SDS011;3630;42.146;24.756;2022-12-01T01:03:28;6.83;;;6.20;;
7177;SDS011;3630;42.146;24.756;2022-12-01T01:05:55;6.57;;;5.97;;
7177;SDS011;3630;42.146;24.756;2022-12-01T01:08:28;6.53;;;5.60;;
7177;SDS011;3630;42.146;24.756;2022-12-01T01:10:57;5.93;;;5.43;;
7177;SDS011;3630;42.146;24.756;2022-12-01T01:13:26;5.73;;;5.13;;
7177;SDS011;3630;42.146;24.756;2022-12-01T01:15:57;5.33;;;4.83;;
7177;SDS011;3630;42.146;24.756;2022-12-01T01:18:24;5.70;;;4.73;;
7177;SDS011;3630;42.146;24.756;2022-12-01T01:20:53;4.93;;;4.40;;
7177;SDS011;3630;42.146;24.756;2022-12-01T01:23:21;4.07;;;3.77;;
7177;SDS011;3630;42.146;24.756;2022-12-01T01:25:48;6.60;;;4.37;;
7177;SDS011;3630;42.146;24.756;2022-12-01T01:28:14;4.03;;;3.60;;
7177;SDS011;3630;42.146;24.756;2022-12-01T01:30:46;4.13;;;3.83;;
7177;SDS011;3630;42.146;24.756;2022-12-01T01:33:14;4.80;;;4.30;;
7177;SDS011;3630;42.146;24.756;2022-12-01T01:35:41;4.37;;;3.97;;
7177;SDS011;3630;42.146;24.756;2022-12-01T01:38:08;4.80;;;4.40;;
7177;SDS011;3630;42.146;24.756;2022-12-01T01:40:41;5.07;;;4.57;;
7177;SDS011;3630;42.146;24.756;2022-12-01T01:43:09;5.15;;;4.75;;
7177;SDS011;3630;42.146;24.756;2022-12-01T01:45:40;4.97;;;4.50;;
7177;SDS011;3630;42.146;24.756;2022-12-01T01:48:09;6.23;;;5.50;;
7177;SDS011;3630;42.146;24.756;2022-12-01T01:50:38;6.13;;;5.53;;
7177;SDS011;3630;42.146;24.756;2022-12-01T01:53:06;4.83;;;4.43;;
7177;SDS011;3630;42.146;24.756;2022-12-01T01:55:36;4.87;;;4.37;;
7177;SDS011;3630;42.146;24.756;2022-12-01T01:58:04;5.30;;;4.63;;
7177;SDS011;3630;42.146;24.756;2022-12-01T02:00:34;4.70;;;4.20;;
7177;SDS011;3630;42.146;24.756;2022-12-01T02:03:03;7.17;;;6.03;;
7177;SDS011;3630;42.146;24.756;2022-12-01T02:05:32;5.57;;;5.07;;
7177;SDS011;3630;42.146;24.756;2022-12-01T02:08:01;4.77;;;4.37;;
7177;SDS011;3630;42.146;24.756;2022-12-01T02:10:31;4.90;;;4.47;;
7177;SDS011;3630;42.146;24.756;2022-12-01T02:13:08;5.80;;;5.30;;
7177;SDS011;3630;42.146;24.756;2022-12-01T02:15:47;4.97;;;4.50;;
7177;SDS011;3630;42.146;24.756;2022-12-01T02:18:26;4.70;;;4.37;;
7177;SDS011;3630;42.146;24.756;2022-12-01T02:21:13;4.90;;;4.50;;
7177;SDS011;3630;42.146;24.756;2022-12-01T02:23:56;4.53;;;4.13;;
7177;SDS011;3630;42.146;24.756;2022-12-01T02:26:50;4.20;;;3.90;;
7177;SDS011;3630;42.146;24.756;2022-12-01T02:29:41;4.10;;;3.70;;
7177;SDS011;3630;42.146;24.756;2022-12-01T02:35:31;4.33;;;3.93;;
7177;SDS011;3630;42.146;24.756;2022-12-01T02:38:06;3.90;;;3.60;;
7177;SDS011;3630;42.146;24.756;2022-12-01T02:40:39;4.50;;;4.10;;
7177;SDS011;3630;42.146;24.756;2022-12-01T02:43:13;4.07;;;3.67;;
7177;SDS011;3630;42.146;24.756;2022-12-01T02:45:49;3.73;;;3.43;;
7177;SDS011;3630;42.146;24.756;2022-12-01T02:48:23;4.53;;;3.60;;
7177;SDS011;3630;42.146;24.756;2022-12-01T02:50:53;3.63;;;3.33;;
7177;SDS011;3630;42.146;24.756;2022-12-01T02:53:23;3.80;;;3.50;;
7177;SDS011;3630;42.146;24.756;2022-12-01T02:55:52;3.80;;;3.50;;
7177;SDS011;3630;42.146;24.756;2022-12-01T02:58:20;3.40;;;3.20;;
7177;SDS011;3630;42.146;24.756;2022-12-01T03:00:51;4.50;;;3.20;;
7177;SDS011;3630;42.146;24.756;2022-12-01T03:03:43;3.43;;;3.23;;
7177;SDS011;3630;42.146;24.756;2022-12-01T03:06:23;4.63;;;3.30;;
7177;SDS011;3630;42.146;24.756;2022-12-01T03:09:02;2.97;;;2.77;;
7177;SDS011;3630;42.146;24.756;2022-12-01T03:11:40;3.13;;;2.43;;
7177;SDS011;3630;42.146;24.756;2022-12-01T03:14:15;3.27;;;3.07;;
7177;SDS011;3630;42.146;24.756;2022-12-01T03:16:49;2.70;;;2.50;;
7177;SDS011;3630;42.146;24.756;2022-12-01T03:19:20;3.20;;;2.90;;
7177;SDS011;3630;42.146;24.756;2022-12-01T03:21:55;2.77;;;2.53;;
7177;SDS011;3630;42.146;24.756;2022-12-01T03:24:27;3.87;;;2.30;;
7177;SDS011;3630;42.146;24.756;2022-12-01T03:26:57;4.80;;;2.20;;
7177;SDS011;3630;42.146;24.756;2022-12-01T03:29:29;2.00;;;1.90;;
7177;SDS011;3630;42.146;24.756;2022-12-01T03:32:02;2.13;;;2.03;;
7177;SDS011;3630;42.146;24.756;2022-12-01T03:34:35;2.07;;;1.97;;
7177;SDS011;3630;42.146;24.756;2022-12-01T03:37:08;2.13;;;1.93;;
7177;SDS011;3630;42.146;24.756;2022-12-01T03:39:39;1.50;;;1.40;;
7177;SDS011;3630;42.146;24.756;2022-12-01T03:42:09;2.40;;;2.20;;
7177;SDS011;3630;42.146;24.756;2022-12-01T03:44:41;2.10;;;2.00;;
7177;SDS011;3630;42.146;24.756;2022-12-01T03:47:11;2.00;;;1.90;;
7177;SDS011;3630;42.146;24.756;2022-12-01T03:49:43;2.53;;;1.87;;
7177;SDS011;3630;42.146;24.756;2022-12-01T03:52:14;2.63;;;2.43;;
7177;SDS011;3630;42.146;24.756;2022-12-01T03:54:48;2.10;;;2.00;;
7177;SDS011;3630;42.146;24.756;2022-12-01T03:57:27;1.90;;;1.80;;
7177;SDS011;3630;42.146;24.756;2022-12-01T03:59:57;2.10;;;2.00;;
7177;SDS011;3630;42.146;24.756;2022-12-01T04:02:25;2.00;;;1.87;;
7177;SDS011;3630;42.146;24.756;2022-12-01T04:04:53;1.90;;;1.80;;
7177;SDS011;3630;42.146;24.756;2022-12-01T04:07:20;2.00;;;1.90;;
7177;SDS011;3630;42.146;24.756;2022-12-01T04:09:48;2.00;;;1.90;;
7177;SDS011;3630;42.146;24.756;2022-12-01T04:12:15;2.73;;;2.03;;
7177;SDS011;3630;42.146;24.756;2022-12-01T04:14:58;3.13;;;2.40;;
7177;SDS011;3630;42.146;24.756;2022-12-01T04:17:27;2.73;;;2.53;;
7177;SDS011;3630;42.146;24.756;2022-12-01T04:19:55;4.43;;;3.70;;
7177;SDS011;3630;42.146;24.756;2022-12-01T04:22:22;3.40;;;3.10;;
7177;SDS011;3630;42.146;24.756;2022-12-01T04:24:49;6.47;;;3.57;;
7177;SDS011;3630;42.146;24.756;2022-12-01T04:27:16;3.67;;;3.30;;
7177;SDS011;3630;42.146;24.756;2022-12-01T04:29:43;3.40;;;3.10;;
7177;SDS011;3630;42.146;24.756;2022-12-01T04:32:10;3.50;;;3.20;;
7177;SDS011;3630;42.146;24.756;2022-12-01T04:34:37;2.40;;;2.20;;
7177;SDS011;3630;42.146;24.756;2022-12-01T04:37:06;3.60;;;3.10;;
7177;SDS011;3630;42.146;24.756;2022-12-01T04:39:34;2.50;;;2.30;;
7177;SDS011;3630;42.146;24.756;2022-12-01T04:42:02;2.20;;;2.10;;
7177;SDS011;3630;42.146;24.756;2022-12-01T04:44:29;5.70;;;3.80;;
7177;SDS011;3630;42.146;24.756;2022-12-01T04:46:56;3.43;;;2.63;;
7177;SDS011;3630;42.146;24.756;2022-12-01T04:49:23;2.80;;;2.50;;
7177;SDS011;3630;42.146;24.756;2022-12-01T04:51:50;3.13;;;2.33;;
7177;SDS011;3630;42.146;24.756;2022-12-01T04:54:18;2.33;;;2.13;;
7177;SDS011;3630;42.146;24.756;2022-12-01T04:56:45;2.80;;;2.40;;
7177;SDS011;3630;42.146;24.756;2022-12-01T04:59:12;2.47;;;2.27;;
7177;SDS011;3630;42.146;24.756;2022-12-01T05:01:39;2.93;;;2.67;;
7177;SDS011;3630;42.146;24.756;2022-12-01T05:04:09;3.07;;;2.63;;
7177;SDS011;3630;42.146;24.756;2022-12-01T05:06:36;2.43;;;2.27;;
7177;SDS011;3630;42.146;24.756;2022-12-01T05:09:03;3.53;;;3.23;;
7177;SDS011;3630;42.146;24.756;2022-12-01T05:11:31;3.07;;;2.80;;
7177;SDS011;3630;42.146;24.756;2022-12-01T05:13:58;3.10;;;2.80;;
7177;SDS011;3630;42.146;24.756;2022-12-01T05:16:27;4.07;;;2.93;;
7177;SDS011;3630;42.146;24.756;2022-12-01T05:18:56;2.63;;;2.43;;
7177;SDS011;3630;42.146;24.756;2022-12-01T05:21:38;3.00;;;2.80;;
7177;SDS011;3630;42.146;24.756;2022-12-01T05:24:05;4.67;;;4.07;;
7177;SDS011;3630;42.146;24.756;2022-12-01T05:26:34;6.43;;;5.30;;
7177;SDS011;3630;42.146;24.756;2022-12-01T05:29:02;5.88;;;5.13;;
7177;SDS011;3630;42.146;24.756;2022-12-01T05:31:29;14.30;;;7.37;;
7177;SDS011;3630;42.146;24.756;2022-12-01T05:33:56;5.40;;;4.07;;
7177;SDS011;3630;42.146;24.756;2022-12-01T05:36:23;4.17;;;3.77;;
7177;SDS011;3630;42.146;24.756;2022-12-01T05:38:49;3.43;;;2.60;;
7177;SDS011;3630;42.146;24.756;2022-12-01T05:41:16;4.37;;;2.67;;
7177;SDS011;3630;42.146;24.756;2022-12-01T05:43:44;1.95;;;1.85;;
7177;SDS011;3630;42.146;24.756;2022-12-01T05:46:11;2.50;;;2.30;;
7177;SDS011;3630;42.146;24.756;2022-12-01T05:48:38;2.57;;;2.30;;
7177;SDS011;3630;42.146;24.756;2022-12-01T05:51:08;3.47;;;2.37;;
7177;SDS011;3630;42.146;24.756;2022-12-01T05:53:36;4.53;;;2.67;;
7177;SDS011;3630;42.146;24.756;2022-12-01T05:56:03;3.73;;;3.20;;
7177;SDS011;3630;42.146;24.756;2022-12-01T05:58:31;4.13;;;2.50;;
7177;SDS011;3630;42.146;24.756;2022-12-01T06:00:59;2.50;;;2.30;;
7177;SDS011;3630;42.146;24.756;2022-12-01T06:03:26;2.47;;;2.00;;
7177;SDS011;3630;42.146;24.756;2022-12-01T06:05:53;1.70;;;1.50;;
7177;SDS011;3630;42.146;24.756;2022-12-01T06:08:20;1.87;;;1.73;;
7177;SDS011;3630;42.146;24.756;2022-12-01T06:10:47;2.23;;;1.43;;
7177;SDS011;3630;42.146;24.756;2022-12-01T06:13:14;3.03;;;1.83;;
7177;SDS011;3630;42.146;24.756;2022-12-01T06:15:41;1.70;;;1.60;;
7177;SDS011;3630;42.146;24.756;2022-12-01T06:18:09;2.80;;;2.60;;
7177;SDS011;3630;42.146;24.756;2022-12-01T06:20:35;1.93;;;1.83;;
7177;SDS011;3630;42.146;24.756;2022-12-01T06:23:02;2.33;;;2.13;;
7177;SDS011;3630;42.146;24.756;2022-12-01T06:25:29;2.30;;;2.10;;
7177;SDS011;3630;42.146;24.756;2022-12-01T06:27:56;1.83;;;1.73;;
7177;SDS011;3630;42.146;24.756;2022-12-01T06:30:23;2.17;;;1.80;;
7177;SDS011;3630;42.146;24.756;2022-12-01T06:32:50;3.63;;;2.73;;
7177;SDS011;3630;42.146;24.756;2022-12-01T06:35:19;2.33;;;2.10;;
7177;SDS011;3630;42.146;24.756;2022-12-01T06:37:46;1.90;;;1.80;;
7177;SDS011;3630;42.146;24.756;2022-12-01T06:40:13;4.90;;;3.37;;
7177;SDS011;3630;42.146;24.756;2022-12-01T06:42:40;3.83;;;3.00;;
7177;SDS011;3630;42.146;24.756;2022-12-01T06:45:07;4.57;;;3.30;;
7177;SDS011;3630;42.146;24.756;2022-12-01T06:47:35;2.10;;;1.90;;
7177;SDS011;3630;42.146;24.756;2022-12-01T06:50:03;3.63;;;2.50;;
7177;SDS011;3630;42.146;24.756;2022-12-01T06:52:35;3.87;;;2.93;;
7177;SDS011;3630;42.146;24.756;2022-12-01T06:55:02;6.90;;;3.73;;
7177;SDS011;3630;42.146;24.756;2022-12-01T06:57:29;38.07;;;20.77;;
7177;SDS011;3630;42.146;24.756;2022-12-01T06:59:56;22.53;;;13.73;;
7177;SDS011;3630;42.146;24.756;2022-12-01T07:02:23;10.03;;;5.77;;
7177;SDS011;3630;42.146;24.756;2022-12-01T07:04:50;7.13;;;4.90;;
7177;SDS011;3630;42.146;24.756;2022-12-01T07:07:16;6.93;;;4.43;;
7177;SDS011;3630;42.146;24.756;2022-12-01T07:09:45;5.13;;;4.27;;
7177;SDS011;3630;42.146;24.756;2022-12-01T07:12:12;13.77;;;8.87;;
7177;SDS011;3630;42.146;24.756;2022-12-01T07:14:38;16.90;;;9.43;;
7177;SDS011;3630;42.146;24.756;2022-12-01T07:17:06;20.87;;;12.73;;
7177;SDS011;3630;42.146;24.756;2022-12-01T07:19:33;17.80;;;12.90;;
7177;SDS011;3630;42.146;24.756;2022-12-01T07:22:00;9.70;;;7.53;;
7177;SDS011;3630;42.146;24.756;2022-12-01T07:24:27;10.30;;;8.23;;
7177;SDS011;3630;42.146;24.756;2022-12-01T07:26:56;10.90;;;7.17;;
7177;SDS011;3630;42.146;24.756;2022-12-01T07:29:22;9.80;;;7.00;;
7177;SDS011;3630;42.146;24.756;2022-12-01T07:31:49;12.20;;;8.03;;
7177;SDS011;3630;42.146;24.756;2022-12-01T07:34:16;11.85;;;9.70;;
7177;SDS011;3630;42.146;24.756;2022-12-01T07:36:43;7.33;;;6.27;;
7177;SDS011;3630;42.146;24.756;2022-12-01T07:39:10;6.93;;;5.63;;
7177;SDS011;3630;42.146;24.756;2022-12-01T07:41:36;6.07;;;5.20;;
7177;SDS011;3630;42.146;24.756;2022-12-01T07:44:05;8.20;;;6.30;;
7177;SDS011;3630;42.146;24.756;2022-12-01T07:46:32;9.60;;;6.73;;
7177;SDS011;3630;42.146;24.756;2022-12-01T07:48:59;8.50;;;5.77;;
7177;SDS011;3630;42.146;24.756;2022-12-01T07:51:25;12.50;;;7.77;;
7177;SDS011;3630;42.146;24.756;2022-12-01T07:53:53;6.93;;;5.50;;
7177;SDS011;3630;42.146;24.756;2022-12-01T07:56:20;5.57;;;5.07;;
7177;SDS011;3630;42.146;24.756;2022-12-01T07:58:48;4.57;;;2.80;;
7177;SDS011;3630;42.146;24.756;2022-12-01T08:01:16;5.10;;;4.70;;
7177;SDS011;3630;42.146;24.756;2022-12-01T08:03:46;3.87;;;3.47;;
7177;SDS011;3630;42.146;24.756;2022-12-01T08:06:13;4.30;;;2.87;;
7177;SDS011;3630;42.146;24.756;2022-12-01T08:08:40;6.00;;;4.83;;
7177;SDS011;3630;42.146;24.756;2022-12-01T08:11:09;4.40;;;3.83;;
7177;SDS011;3630;42.146;24.756;2022-12-01T08:13:37;3.87;;;3.43;;
7177;SDS011;3630;42.146;24.756;2022-12-01T08:16:04;5.30;;;3.90;;
7177;SDS011;3630;42.146;24.756;2022-12-01T08:18:34;4.10;;;3.50;;
7177;SDS011;3630;42.146;24.756;2022-12-01T08:21:01;7.37;;;6.03;;
7177;SDS011;3630;42.146;24.756;2022-12-01T08:23:28;4.77;;;4.00;;
7177;SDS011;3630;42.146;24.756;2022-12-01T08:25:58;6.57;;;3.17;;
7177;SDS011;3630;42.146;24.756;2022-12-01T08:28:26;6.10;;;4.50;;
7177;SDS011;3630;42.146;24.756;2022-12-01T08:30:52;5.23;;;4.17;;
7177;SDS011;3630;42.146;24.756;2022-12-01T08:33:19;5.03;;;4.17;;
7177;SDS011;3630;42.146;24.756;2022-12-01T08:35:47;9.13;;;7.30;;
7177;SDS011;3630;42.146;24.756;2022-12-01T08:38:14;4.57;;;4.10;;
7177;SDS011;3630;42.146;24.756;2022-12-01T08:40:41;5.70;;;3.13;;
7177;SDS011;3630;42.146;24.756;2022-12-01T08:43:08;4.33;;;3.93;;
7177;SDS011;3630;42.146;24.756;2022-12-01T08:45:35;6.30;;;5.17;;
7177;SDS011;3630;42.146;24.756;2022-12-01T08:48:02;5.60;;;5.10;;
7177;SDS011;3630;42.146;24.756;2022-12-01T08:50:28;7.43;;;5.70;;
7177;SDS011;3630;42.146;24.756;2022-12-01T08:52:57;9.20;;;6.43;;
7177;SDS011;3630;42.146;24.756;2022-12-01T08:55:23;11.57;;;8.17;;
7177;SDS011;3630;42.146;24.756;2022-12-01T08:57:50;5.40;;;4.33;;
7177;SDS011;3630;42.146;24.756;2022-12-01T09:00:17;6.77;;;6.17;;
7177;SDS011;3630;42.146;24.756;2022-12-01T09:02:44;5.87;;;5.37;;
7177;SDS011;3630;42.146;24.756;2022-12-01T09:05:11;6.13;;;5.03;;
7177;SDS011;3630;42.146;24.756;2022-12-01T09:07:38;5.17;;;4.70;;
7177;SDS011;3630;42.146;24.756;2022-12-01T09:10:08;5.23;;;4.77;;
7177;SDS011;3630;42.146;24.756;2022-12-01T09:12:35;7.57;;;6.05;;
7177;SDS011;3630;42.146;24.756;2022-12-01T09:15:02;4.93;;;3.90;;
7177;SDS011;3630;42.146;24.756;2022-12-01T09:17:30;10.97;;;7.97;;
7177;SDS011;3630;42.146;24.756;2022-12-01T09:19:57;9.77;;;7.57;;
7177;SDS011;3630;42.146;24.756;2022-12-01T09:22:24;9.70;;;6.30;;
7177;SDS011;3630;42.146;24.756;2022-12-01T09:24:51;4.67;;;4.17;;
7177;SDS011;3630;42.146;24.756;2022-12-01T09:27:19;6.73;;;5.17;;
7177;SDS011;3630;42.146;24.756;2022-12-01T09:29:46;10.93;;;8.23;;
7177;SDS011;3630;42.146;24.756;2022-12-01T09:32:12;7.33;;;6.13;;
7177;SDS011;3630;42.146;24.756;2022-12-01T09:34:39;6.80;;;5.30;;
7177;SDS011;3630;42.146;24.756;2022-12-01T09:37:06;5.73;;;4.20;;
7177;SDS011;3630;42.146;24.756;2022-12-01T09:39:33;5.90;;;4.73;;
7177;SDS011;3630;42.146;24.756;2022-12-01T09:42:01;5.33;;;4.83;;
7177;SDS011;3630;42.146;24.756;2022-12-01T09:44:35;5.20;;;4.70;;
7177;SDS011;3630;42.146;24.756;2022-12-01T09:47:07;4.83;;;4.00;;
7177;SDS011;3630;42.146;24.756;2022-12-01T09:49:48;6.20;;;5.17;;
7177;SDS011;3630;42.146;24.756;2022-12-01T09:52:20;8.43;;;5.40;;
7177;SDS011;3630;42.146;24.756;2022-12-01T09:54:49;7.47;;;4.60;;
7177;SDS011;3630;42.146;24.756;2022-12-01T09:57:23;5.40;;;4.97;;
7177;SDS011;3630;42.146;24.756;2022-12-01T09:59:57;8.33;;;4.80;;
7177;SDS011;3630;42.146;24.756;2022-12-01T10:02:29;3.93;;;3.60;;
7177;SDS011;3630;42.146;24.756;2022-12-01T10:05:02;5.70;;;4.77;;
7177;SDS011;3630;42.146;24.756;2022-12-01T10:07:32;9.63;;;8.73;;
7177;SDS011;3630;42.146;24.756;2022-12-01T10:10:04;6.47;;;5.07;;
7177;SDS011;3630;42.146;24.756;2022-12-01T10:12:33;6.27;;;5.50;;
7177;SDS011;3630;42.146;24.756;2022-12-01T10:17:57;6.30;;;5.47;;
7177;SDS011;3630;42.146;24.756;2022-12-01T10:20:32;7.10;;;5.57;;
7177;SDS011;3630;42.146;24.756;2022-12-01T10:23:15;8.15;;;6.78;;
7177;SDS011;3630;42.146;24.756;2022-12-01T10:25:51;7.87;;;6.30;;
7177;SDS011;3630;42.146;24.756;2022-12-01T10:31:20;5.53;;;5.00;;
7177;SDS011;3630;42.146;24.756;2022-12-01T10:33:57;5.87;;;4.97;;
7177;SDS011;3630;42.146;24.756;2022-12-01T10:36:26;7.63;;;6.93;;
7177;SDS011;3630;42.146;24.756;2022-12-01T10:38:55;6.23;;;5.20;;
7177;SDS011;3630;42.146;24.756;2022-12-01T10:41:22;9.07;;;6.00;;
7177;SDS011;3630;42.146;24.756;2022-12-01T10:43:55;6.60;;;4.80;;
7177;SDS011;3630;42.146;24.756;2022-12-01T10:46:28;12.60;;;7.50;;
7177;SDS011;3630;42.146;24.756;2022-12-01T10:49:07;7.63;;;5.63;;
7177;SDS011;3630;42.146;24.756;2022-12-01T10:51:46;6.80;;;6.13;;
7177;SDS011;3630;42.146;24.756;2022-12-01T10:54:15;10.23;;;8.07;;
7177;SDS011;3630;42.146;24.756;2022-12-01T10:56:43;8.97;;;7.40;;
7177;SDS011;3630;42.146;24.756;2022-12-01T10:59:18;8.03;;;6.90;;
7177;SDS011;3630;42.146;24.756;2022-12-01T11:01:51;17.45;;;12.82;;
7177;SDS011;3630;42.146;24.756;2022-12-01T11:04:26;10.80;;;8.30;;
7177;SDS011;3630;42.146;24.756;2022-12-01T11:06:59;15.20;;;9.63;;
7177;SDS011;3630;42.146;24.756;2022-12-01T11:09:27;8.20;;;7.30;;
7177;SDS011;3630;42.146;24.756;2022-12-01T11:11:55;8.53;;;7.63;;
7177;SDS011;3630;42.146;24.756;2022-12-01T11:17:22;13.43;;;10.63;;
7177;SDS011;3630;42.146;24.756;2022-12-01T11:19:55;11.13;;;8.23;;
7177;SDS011;3630;42.146;24.756;2022-12-01T11:22:24;6.87;;;5.57;;
7177;SDS011;3630;42.146;24.756;2022-12-01T11:24:56;12.23;;;8.60;;
7177;SDS011;3630;42.146;24.756;2022-12-01T11:27:26;9.10;;;7.47;;
7177;SDS011;3630;42.146;24.756;2022-12-01T11:29:56;9.80;;;7.50;;
7177;SDS011;3630;42.146;24.756;2022-12-01T11:32:28;10.73;;;8.87;;
7177;SDS011;3630;42.146;24.756;2022-12-01T11:34:58;9.27;;;7.90;;
7177;SDS011;3630;42.146;24.756;2022-12-01T11:37:28;18.17;;;12.90;;
7177;SDS011;3630;42.146;24.756;2022-12-01T11:40:05;10.23;;;7.40;;
7177;SDS011;3630;42.146;24.756;2022-12-01T11:42:34;29.57;;;17.23;;
7177;SDS011;3630;42.146;24.756;2022-12-01T11:45:04;9.90;;;7.27;;
7177;SDS011;3630;42.146;24.756;2022-12-01T11:47:35;20.63;;;12.37;;
7177;SDS011;3630;42.146;24.756;2022-12-01T11:50:27;14.70;;;8.17;;
7177;SDS011;3630;42.146;24.756;2022-12-01T11:52:55;19.20;;;11.80;;
7177;SDS011;3630;42.146;24.756;2022-12-01T11:55:23;16.43;;;8.23;;
7177;SDS011;3630;42.146;24.756;2022-12-01T11:57:53;9.87;;;6.27;;
7177;SDS011;3630;42.146;24.756;2022-12-01T12:00:23;17.75;;;13.23;;
7177;SDS011;3630;42.146;24.756;2022-12-01T12:03:06;17.70;;;13.07;;
7177;SDS011;3630;42.146;24.756;2022-12-01T12:08:34;7.67;;;5.10;;
7177;SDS011;3630;42.146;24.756;2022-12-01T12:11:13;9.40;;;6.17;;
7177;SDS011;3630;42.146;24.756;2022-12-01T12:16:47;13.75;;;8.90;;
7177;SDS011;3630;42.146;24.756;2022-12-01T12:19:31;18.10;;;10.43;;
7177;SDS011;3630;42.146;24.756;2022-12-01T12:22:17;16.00;;;10.50;;
7177;SDS011;3630;42.146;24.756;2022-12-01T12:24:55;7.53;;;6.37;;
7177;SDS011;3630;42.146;24.756;2022-12-01T12:27:31;11.47;;;8.23;;
7177;SDS011;3630;42.146;24.756;2022-12-01T12:30:16;13.53;;;8.97;;
7177;SDS011;3630;42.146;24.756;2022-12-01T12:32:55;15.87;;;9.87;;
7177;SDS011;3630;42.146;24.756;2022-12-01T12:35:49;11.00;;;7.93;;
7177;SDS011;3630;42.146;24.756;2022-12-01T12:38:28;10.43;;;7.10;;
7177;SDS011;3630;42.146;24.756;2022-12-01T12:41:09;6.13;;;5.30;;
7177;SDS011;3630;42.146;24.756;2022-12-01T12:43:45;23.90;;;12.73;;
7177;SDS011;3630;42.146;24.756;2022-12-01T12:46:21;9.97;;;6.43;;
7177;SDS011;3630;42.146;24.756;2022-12-01T12:49:10;10.73;;;7.10;;
7177;SDS011;3630;42.146;24.756;2022-12-01T12:51:49;10.83;;;6.70;;
7177;SDS011;3630;42.146;24.756;2022-12-01T12:54:22;9.67;;;6.57;;
7177;SDS011;3630;42.146;24.756;2022-12-01T12:56:53;17.42;;;10.30;;
7177;SDS011;3630;42.146;24.756;2022-12-01T12:59:25;11.17;;;7.40;;
7177;SDS011;3630;42.146;24.756;2022-12-01T13:02:00;12.53;;;7.27;;
7177;SDS011;3630;42.146;24.756;2022-12-01T13:04:37;13.80;;;8.93;;
7177;SDS011;3630;42.146;24.756;2022-12-01T13:07:17;4.97;;;4.10;;
7177;SDS011;3630;42.146;24.756;2022-12-01T13:09:51;5.00;;;3.47;;
7177;SDS011;3630;42.146;24.756;2022-12-01T13:12:24;9.13;;;5.60;;
7177;SDS011;3630;42.146;24.756;2022-12-01T13:14:57;10.07;;;7.43;;
7177;SDS011;3630;42.146;24.756;2022-12-01T13:17:30;16.07;;;10.27;;
7177;SDS011;3630;42.146;24.756;2022-12-01T13:20:01;17.13;;;11.87;;
7177;SDS011;3630;42.146;24.756;2022-12-01T13:22:31;14.20;;;8.83;;
7177;SDS011;3630;42.146;24.756;2022-12-01T13:25:01;15.13;;;9.93;;
7177;SDS011;3630;42.146;24.756;2022-12-01T13:27:30;13.32;;;9.13;;
7177;SDS011;3630;42.146;24.756;2022-12-01T13:29:59;20.60;;;12.73;;
7177;SDS011;3630;42.146;24.756;2022-12-01T13:32:29;9.53;;;5.90;;
7177;SDS011;3630;42.146;24.756;2022-12-01T13:34:58;7.17;;;5.00;;
7177;SDS011;3630;42.146;24.756;2022-12-01T13:37:27;4.23;;;3.73;;
7177;SDS011;3630;42.146;24.756;2022-12-01T13:40:05;5.77;;;4.40;;
7177;SDS011;3630;42.146;24.756;2022-12-01T13:42:34;6.03;;;4.87;;
7177;SDS011;3630;42.146;24.756;2022-12-01T13:45:06;6.35;;;5.40;;
7177;SDS011;3630;42.146;24.756;2022-12-01T13:47:37;6.47;;;5.37;;
7177;SDS011;3630;42.146;24.756;2022-12-01T13:53:09;9.10;;;7.53;;
7177;SDS011;3630;42.146;24.756;2022-12-01T13:55:53;6.07;;;5.47;;
7177;SDS011;3630;42.146;24.756;2022-12-01T13:58:24;15.37;;;12.07;;
7177;SDS011;3630;42.146;24.756;2022-12-01T14:04:22;9.80;;;7.07;;
7177;SDS011;3630;42.146;24.756;2022-12-01T14:09:45;15.97;;;11.73;;
7177;SDS011;3630;42.146;24.756;2022-12-01T14:12:16;12.73;;;8.50;;
7177;SDS011;3630;42.146;24.756;2022-12-01T14:14:48;9.67;;;8.10;;
7177;SDS011;3630;42.146;24.756;2022-12-01T14:17:25;8.60;;;4.77;;
7177;SDS011;3630;42.146;24.756;2022-12-01T14:19:55;7.60;;;6.60;;
7177;SDS011;3630;42.146;24.756;2022-12-01T14:22:33;7.10;;;6.37;;
7177;SDS011;3630;42.146;24.756;2022-12-01T14:25:04;6.47;;;5.13;;
7177;SDS011;3630;42.146;24.756;2022-12-01T14:27:49;14.13;;;9.63;;
7177;SDS011;3630;42.146;24.756;2022-12-01T14:33:41;11.97;;;9.10;;
7177;SDS011;3630;42.146;24.756;2022-12-01T14:36:12;11.60;;;9.40;;
7177;SDS011;3630;42.146;24.756;2022-12-01T14:38:47;10.33;;;7.67;;
7177;SDS011;3630;42.146;24.756;2022-12-01T14:41:19;6.27;;;5.67;;
7177;SDS011;3630;42.146;24.756;2022-12-01T14:43:49;8.40;;;6.70;;
7177;SDS011;3630;42.146;24.756;2022-12-01T14:46:32;8.37;;;7.03;;
7177;SDS011;3630;42.146;24.756;2022-12-01T14:49:08;10.33;;;8.27;;
7177;SDS011;3630;42.146;24.756;2022-12-01T14:51:40;14.43;;;12.03;;
7177;SDS011;3630;42.146;24.756;2022-12-01T14:54:14;16.97;;;12.07;;
7177;SDS011;3630;42.146;24.756;2022-12-01T14:56:46;26.17;;;20.52;;
7177;SDS011;3630;42.146;24.756;2022-12-01T14:59:20;22.57;;;18.23;;
7177;SDS011;3630;42.146;24.756;2022-12-01T15:01:49;27.63;;;23.27;;
7177;SDS011;3630;42.146;24.756;2022-12-01T15:04:18;15.40;;;13.80;;
7177;SDS011;3630;42.146;24.756;2022-12-01T15:06:44;10.53;;;7.80;;
7177;SDS011;3630;42.146;24.756;2022-12-01T15:09:13;12.47;;;10.23;;
7177;SDS011;3630;42.146;24.756;2022-12-01T15:11:49;15.10;;;9.43;;
7177;SDS011;3630;42.146;24.756;2022-12-01T15:14:29;24.13;;;16.43;;
7177;SDS011;3630;42.146;24.756;2022-12-01T15:16:58;18.67;;;13.83;;
7177;SDS011;3630;42.146;24.756;2022-12-01T15:19:28;17.40;;;10.50;;
7177;SDS011;3630;42.146;24.756;2022-12-01T15:21:57;18.30;;;12.80;;
7177;SDS011;3630;42.146;24.756;2022-12-01T15:24:25;14.63;;;10.87;;
7177;SDS011;3630;42.146;24.756;2022-12-01T15:26:55;19.05;;;13.98;;
7177;SDS011;3630;42.146;24.756;2022-12-01T15:29:24;15.10;;;11.40;;
7177;SDS011;3630;42.146;24.756;2022-12-01T15:31:54;12.07;;;8.77;;
7177;SDS011;3630;42.146;24.756;2022-12-01T15:34:23;14.43;;;11.10;;
7177;SDS011;3630;42.146;24.756;2022-12-01T15:36:55;13.43;;;10.47;;
7177;SDS011;3630;42.146;24.756;2022-12-01T15:39:25;9.50;;;7.03;;
7177;SDS011;3630;42.146;24.756;2022-12-01T15:41:56;13.87;;;11.10;;
7177;SDS011;3630;42.146;24.756;2022-12-01T15:44:25;13.10;;;10.20;;
7177;SDS011;3630;42.146;24.756;2022-12-01T15:46:55;16.67;;;13.10;;